createdAt,value
2022-11-27T00:01:55.976Z,25.33
2022-11-27T00:04:58.258Z,24.33
2022-11-27T00:08:00.567Z,25.48
2022-11-27T00:11:12.060Z,23.20
2022-11-27T00:14:16.228Z,24.70
2022-11-27T00:17:18.520Z,25.80
2022-11-27T00:20:20.820Z,24.20
2022-11-27T00:23:23.147Z,24.67
2022-11-27T00:26:26.049Z,23.05
2022-11-27T00:29:30.904Z,22.77
2022-11-27T00:32:33.183Z,22.70
2022-11-27T00:35:35.437Z,22.10
2022-11-27T00:38:39.309Z,21.15
2022-11-27T00:41:41.695Z,21.85
2022-11-27T00:44:43.949Z,21.00
2022-11-27T00:47:46.260Z,22.03
2022-11-27T00:50:48.552Z,19.60
2022-11-27T00:53:51.598Z,20.63
2022-11-27T00:56:53.919Z,20.02
2022-11-27T00:59:56.234Z,21.13
2022-11-27T01:02:58.633Z,19.03
2022-11-27T01:06:05.612Z,18.97
2022-11-27T01:09:08.242Z,20.27
2022-11-27T01:12:10.579Z,20.55
2022-11-27T01:15:12.959Z,19.70
2022-11-27T01:18:15.271Z,20.23
2022-11-27T01:21:19.678Z,18.77
2022-11-27T01:24:21.995Z,20.48
2022-11-27T01:27:24.301Z,19.10
2022-11-27T01:30:26.724Z,20.20
2022-11-27T01:33:29.031Z,18.83
2022-11-27T01:36:32.239Z,20.50
2022-11-27T01:39:34.490Z,19.25
2022-11-27T01:42:36.771Z,20.35
2022-11-27T01:45:39.091Z,19.15
2022-11-27T01:48:41.375Z,19.43
2022-11-27T01:51:51.835Z,19.33
2022-11-27T01:54:58.483Z,18.77
2022-11-27T01:58:11.578Z,18.92
2022-11-27T02:01:14.276Z,19.88
2022-11-27T02:04:18.041Z,19.60
2022-11-27T02:07:20.588Z,19.90
2022-11-27T02:10:48.584Z,19.67
2022-11-27T02:14:03.023Z,18.80
2022-11-27T02:17:14.408Z,16.70
2022-11-27T02:20:19.804Z,17.83
2022-11-27T02:23:46.601Z,18.67
2022-11-27T02:27:10.166Z,18.38
2022-11-27T02:30:13.067Z,18.90
2022-11-27T02:33:18.797Z,18.45
2022-11-27T02:36:27.924Z,17.80
2022-11-27T02:39:40.344Z,19.00
2022-11-27T02:42:47.668Z,19.52
2022-11-27T02:45:51.818Z,19.00
2022-11-27T02:48:58.289Z,17.10
2022-11-27T02:52:02.370Z,17.30
2022-11-27T02:55:07.636Z,17.80
2022-11-27T02:58:14.384Z,17.92
2022-11-27T03:01:18.802Z,17.90
2022-11-27T03:04:25.256Z,18.85
2022-11-27T03:07:42.750Z,18.27
2022-11-27T03:10:50.399Z,17.90
2022-11-27T03:13:55.268Z,17.55
2022-11-27T03:17:23.401Z,17.48
2022-11-27T03:20:37.536Z,17.90
2022-11-27T03:23:39.880Z,18.80
2022-11-27T03:26:42.202Z,18.57
2022-11-27T03:29:55.077Z,18.50
2022-11-27T03:32:57.770Z,17.50
2022-11-27T03:36:00.197Z,17.98
2022-11-27T03:39:03.725Z,19.10
2022-11-27T03:42:17.376Z,17.93
2022-11-27T03:45:48.469Z,18.10
2022-11-27T03:49:20.207Z,19.02
2022-11-27T03:52:34.552Z,17.92
2022-11-27T03:55:50.132Z,18.73
2022-11-27T03:58:55.309Z,18.60
2022-11-27T04:01:57.692Z,20.20
2022-11-27T04:05:00.083Z,20.13
2022-11-27T04:08:02.370Z,19.48
2022-11-27T04:11:04.838Z,21.07
2022-11-27T04:14:07.371Z,21.10
2022-11-27T04:17:09.686Z,23.10
2022-11-27T04:20:15.560Z,21.98
2022-11-27T04:23:17.917Z,22.27
2022-11-27T04:26:20.274Z,22.13
2022-11-27T04:29:22.580Z,22.13
2022-11-27T04:32:24.804Z,22.25
2022-11-27T04:35:27.121Z,22.10
2022-11-27T04:38:29.352Z,22.80
2022-11-27T04:41:31.641Z,22.37
2022-11-27T04:44:33.985Z,22.43
2022-11-27T04:47:36.251Z,20.20
2022-11-27T04:50:39.285Z,20.70
2022-11-27T04:53:42.297Z,22.08
2022-11-27T04:56:44.585Z,21.03
2022-11-27T04:59:46.915Z,20.03
2022-11-27T05:02:49.356Z,19.98
2022-11-27T05:05:58.839Z,21.20
2022-11-27T05:09:02.302Z,20.95
2022-11-27T05:12:05.014Z,21.97
2022-11-27T05:15:08.177Z,20.90
2022-11-27T05:18:10.520Z,22.23
2022-11-27T05:21:12.849Z,21.45
2022-11-27T05:24:16.071Z,20.80
2022-11-27T05:27:18.347Z,21.17
2022-11-27T05:30:20.636Z,22.03
2022-11-27T05:33:23.009Z,20.70
2022-11-27T05:36:25.797Z,22.45
2022-11-27T05:39:28.079Z,21.92
2022-11-27T05:42:30.440Z,23.53
2022-11-27T05:45:32.932Z,23.10
2022-11-27T05:48:36.157Z,23.70
2022-11-27T05:51:38.658Z,24.38
2022-11-27T05:54:41.051Z,24.58
2022-11-27T05:57:43.477Z,23.70
2022-11-27T06:00:46.406Z,24.43
2022-11-27T06:03:48.885Z,23.65
2022-11-27T06:06:51.318Z,24.85
2022-11-27T06:09:53.565Z,22.80
2022-11-27T06:12:55.955Z,23.70
2022-11-27T06:15:58.288Z,24.57
2022-11-27T06:19:00.626Z,23.02
2022-11-27T06:22:02.912Z,23.95
2022-11-27T06:25:05.656Z,22.33
2022-11-27T06:28:08.146Z,23.30
2022-11-27T06:31:18.059Z,22.73
2022-11-27T06:34:20.644Z,23.33
2022-11-27T06:37:23.350Z,22.25
2022-11-27T06:40:25.635Z,21.10
2022-11-27T06:43:27.915Z,21.97
2022-11-27T06:46:30.564Z,21.70
2022-11-27T06:49:32.853Z,21.17
2022-11-27T06:52:40.179Z,21.35
2022-11-27T06:55:43.027Z,21.60
2022-11-27T06:58:45.963Z,23.13
2022-11-27T07:01:48.904Z,21.20
2022-11-27T07:04:51.221Z,20.55
2022-11-27T07:07:53.698Z,20.38
2022-11-27T07:11:02.260Z,19.15
2022-11-27T07:14:05.716Z,20.53
2022-11-27T07:17:07.991Z,21.27
2022-11-27T07:20:10.807Z,20.50
2022-11-27T07:23:13.170Z,20.55
2022-11-27T07:26:19.942Z,18.85
2022-11-27T07:29:22.234Z,21.33
2022-11-27T07:32:24.559Z,20.73
2022-11-27T07:35:26.875Z,19.52
2022-11-27T07:38:29.360Z,19.88
2022-11-27T07:41:34.134Z,21.00
2022-11-27T07:44:36.673Z,19.57
2022-11-27T07:47:39.474Z,19.33
2022-11-27T07:50:41.895Z,18.05
2022-11-27T07:53:44.682Z,20.05
2022-11-27T07:56:46.974Z,20.65
2022-11-27T07:59:49.362Z,20.03
2022-11-27T08:02:51.652Z,22.03
2022-11-27T08:05:54.017Z,21.27
2022-11-27T08:08:56.878Z,20.38
2022-11-27T08:11:59.253Z,18.40
2022-11-27T08:15:01.678Z,19.80
2022-11-27T08:18:04.273Z,20.57
2022-11-27T08:21:06.532Z,22.00
2022-11-27T08:24:09.333Z,20.40
2022-11-27T08:27:12.104Z,20.50
2022-11-27T08:30:15.212Z,20.10
2022-11-27T08:33:17.460Z,20.83
2022-11-27T08:36:19.908Z,19.27
2022-11-27T08:39:22.331Z,19.23
2022-11-27T08:42:24.620Z,19.23
2022-11-27T08:45:26.928Z,19.83
2022-11-27T08:48:29.275Z,18.70
2022-11-27T08:51:31.563Z,18.40
2022-11-27T08:54:33.860Z,16.80
2022-11-27T08:57:36.394Z,16.38
2022-11-27T09:00:40.958Z,16.57
2022-11-27T09:03:43.795Z,15.77
2022-11-27T09:06:46.210Z,16.92
2022-11-27T09:09:48.756Z,16.35
2022-11-27T09:12:51.204Z,16.98
2022-11-27T09:15:53.534Z,17.07
2022-11-27T09:18:56.394Z,16.50
2022-11-27T09:21:59.568Z,17.42
2022-11-27T09:25:02.032Z,17.88
2022-11-27T09:28:04.373Z,19.20
2022-11-27T09:31:09.067Z,19.60
2022-11-27T09:34:11.381Z,18.57
2022-11-27T09:37:13.820Z,20.67
2022-11-27T09:40:17.751Z,18.83
2022-11-27T09:43:28.861Z,19.98
2022-11-27T09:46:39.435Z,19.63
2022-11-27T09:49:46.230Z,19.07
2022-11-27T09:52:52.830Z,19.75
2022-11-27T09:55:56.819Z,19.13
2022-11-27T09:59:00.100Z,18.88
2022-11-27T10:02:02.637Z,19.60
2022-11-27T10:05:19.858Z,19.13
2022-11-27T10:08:22.300Z,19.77
2022-11-27T10:11:53.715Z,18.98
2022-11-27T10:15:00.019Z,19.00
2022-11-27T10:18:24.095Z,18.13
2022-11-27T10:21:52.129Z,18.50
2022-11-27T10:25:10.993Z,18.52
2022-11-27T10:28:17.708Z,17.65
2022-11-27T10:31:40.958Z,17.25
2022-11-27T10:34:48.493Z,18.40
2022-11-27T10:38:12.736Z,18.30
2022-11-27T10:41:48.944Z,17.80
2022-11-27T10:44:46.274Z,19.05
2022-11-27T10:47:48.984Z,19.50
2022-11-27T10:50:51.491Z,20.60
2022-11-27T10:53:54.782Z,21.13
2022-11-27T10:57:01.340Z,19.05
2022-11-27T11:00:06.738Z,20.33
2022-11-27T11:03:19.155Z,19.50
2022-11-27T11:06:26.332Z,20.30
2022-11-27T11:09:34.801Z,20.87
2022-11-27T11:12:37.160Z,20.63
2022-11-27T11:15:58.585Z,21.38
2022-11-27T11:19:02.678Z,20.55
2022-11-27T11:22:14.745Z,21.07
2022-11-27T11:25:19.152Z,20.63
2022-11-27T11:28:22.126Z,22.05
2022-11-27T11:31:40.940Z,21.88
2022-11-27T11:34:45.878Z,22.05
2022-11-27T11:37:48.318Z,19.87
2022-11-27T11:41:04.755Z,20.20
2022-11-27T11:44:22.959Z,21.58
2022-11-27T11:47:25.408Z,21.67
2022-11-27T11:50:29.759Z,20.73
2022-11-27T11:53:45.619Z,18.93
2022-11-27T11:56:52.506Z,20.63
2022-11-27T12:00:14.919Z,19.13
2022-11-27T12:03:32.498Z,17.10
2022-11-27T12:06:54.297Z,17.13
2022-11-27T12:10:11.274Z,16.93
2022-11-27T12:13:33.344Z,17.63
2022-11-27T12:16:49.843Z,15.48
2022-11-27T12:20:10.876Z,16.33
2022-11-27T12:23:33.331Z,16.75
2022-11-27T12:27:13.173Z,16.33
2022-11-27T12:30:18.348Z,15.17
2022-11-27T12:33:44.269Z,15.85
2022-11-27T12:37:24.925Z,16.23
2022-11-27T12:41:03.565Z,16.92
2022-11-27T12:44:18.215Z,14.43
2022-11-27T12:47:29.126Z,14.23
2022-11-27T12:50:40.490Z,14.43
2022-11-27T12:53:50.816Z,12.80
2022-11-27T12:57:03.152Z,13.60
2022-11-27T13:00:14.628Z,14.23
2022-11-27T13:03:35.273Z,16.17
2022-11-27T13:07:05.494Z,14.00
2022-11-27T13:10:24.623Z,13.63
2022-11-27T13:13:32.259Z,13.27
2022-11-27T13:16:41.406Z,13.70
2022-11-27T13:19:44.556Z,16.40
2022-11-27T13:22:47.803Z,14.10
2022-11-27T13:25:53.219Z,12.95
2022-11-27T13:29:06.309Z,13.25
2022-11-27T13:32:09.399Z,12.47
2022-11-27T13:35:40.162Z,12.60
2022-11-27T13:38:42.804Z,11.25
2022-11-27T13:41:45.167Z,11.07
2022-11-27T13:44:56.944Z,9.73
2022-11-27T13:48:00.320Z,10.00
2022-11-27T13:51:03.432Z,10.03
2022-11-27T13:54:11.495Z,10.13
2022-11-27T13:57:18.320Z,10.43
2022-11-27T14:00:51.742Z,9.30
2022-11-27T14:03:54.228Z,10.17
2022-11-27T14:07:09.736Z,10.20
2022-11-27T14:10:15.940Z,9.95
2022-11-27T14:13:19.943Z,12.32
2022-11-27T14:16:31.909Z,10.40
2022-11-27T14:19:39.614Z,10.27
2022-11-27T14:23:10.583Z,9.50
2022-11-27T14:26:15.784Z,10.05
2022-11-27T14:29:23.139Z,9.82
2022-11-27T14:32:35.415Z,9.55
2022-11-27T14:35:37.840Z,9.20
2022-11-27T14:38:40.148Z,11.17
2022-11-27T14:41:42.377Z,11.90
2022-11-27T14:44:44.829Z,11.77
2022-11-27T14:47:53.093Z,11.50
2022-11-27T14:50:56.081Z,10.83
2022-11-27T14:54:19.979Z,9.57
2022-11-27T14:57:26.787Z,9.90
2022-11-27T15:00:29.346Z,10.65
2022-11-27T15:03:35.274Z,9.93
2022-11-27T15:06:44.686Z,8.80
2022-11-27T15:09:49.879Z,10.20
2022-11-27T15:12:52.358Z,10.60
2022-11-27T15:15:58.612Z,10.65
2022-11-27T15:19:04.811Z,9.27
2022-11-27T15:22:07.105Z,9.53
2022-11-27T15:25:41.402Z,9.90
2022-11-27T15:28:49.886Z,10.77
2022-11-27T15:31:52.815Z,11.10
2022-11-27T15:34:55.223Z,9.85
2022-11-27T15:38:08.219Z,9.80
2022-11-27T15:41:28.088Z,9.07
2022-11-27T15:44:32.216Z,11.15
2022-11-27T15:47:36.846Z,10.70
2022-11-27T15:50:39.118Z,9.77
2022-11-27T15:53:41.388Z,11.37
2022-11-27T15:56:44.008Z,10.83
2022-11-27T15:59:46.255Z,10.63
2022-11-27T16:02:48.667Z,11.75
2022-11-27T16:05:51.035Z,11.52
2022-11-27T16:08:57.681Z,12.20
2022-11-27T16:12:00.080Z,11.60
2022-11-27T16:15:02.787Z,12.02
2022-11-27T16:18:07.187Z,13.18
2022-11-27T16:21:11.364Z,12.10
2022-11-27T16:24:14.789Z,11.10
2022-11-27T16:27:17.078Z,19.10
2022-11-27T16:30:20.144Z,13.02
2022-11-27T16:33:30.315Z,18.75
2022-11-27T16:36:32.903Z,19.73
2022-11-27T16:39:35.484Z,20.90
2022-11-27T16:42:38.553Z,14.77
2022-11-27T16:45:40.973Z,12.60
2022-11-27T16:48:48.636Z,12.82
2022-11-27T16:51:51.168Z,11.10
2022-11-27T16:54:55.321Z,11.40
2022-11-27T16:57:58.813Z,12.40
2022-11-27T17:01:01.416Z,11.38
2022-11-27T17:04:07.208Z,11.18
2022-11-27T17:07:10.258Z,11.73
2022-11-27T17:10:12.580Z,10.63
2022-11-27T17:13:14.810Z,11.73
2022-11-27T17:16:18.776Z,12.38
2022-11-27T17:19:24.075Z,68.80
2022-11-27T17:22:27.353Z,32.72
2022-11-27T17:25:30.651Z,15.97
2022-11-27T17:28:33.388Z,12.70
2022-11-27T17:31:37.185Z,12.27
2022-11-27T17:34:40.154Z,12.32
2022-11-27T17:37:43.813Z,12.13
2022-11-27T17:40:46.115Z,15.93
2022-11-27T17:43:49.029Z,16.23
2022-11-27T17:46:51.396Z,57.80
2022-11-27T17:49:54.382Z,14.65
2022-11-27T17:52:58.271Z,10.80
2022-11-27T17:56:09.101Z,37.00
2022-11-27T17:59:11.440Z,29.87
2022-11-27T18:02:14.967Z,13.35
2022-11-27T18:05:17.719Z,10.02
2022-11-27T18:08:20.307Z,10.05
2022-11-27T18:11:26.028Z,10.70
2022-11-27T18:14:29.369Z,9.90
2022-11-27T18:17:32.741Z,10.73
2022-11-27T18:20:36.074Z,10.13
2022-11-27T18:23:54.055Z,10.55
2022-11-27T18:27:09.903Z,9.87
2022-11-27T18:30:12.944Z,11.30
2022-11-27T18:33:15.241Z,10.88
2022-11-27T18:36:18.022Z,11.77
2022-11-27T18:39:20.313Z,11.88
2022-11-27T18:42:22.775Z,12.37
2022-11-27T18:45:33.477Z,13.00
2022-11-27T18:48:39.671Z,12.68
2022-11-27T18:51:41.918Z,12.80
2022-11-27T18:54:44.375Z,12.93
2022-11-27T18:57:47.171Z,13.43
2022-11-27T19:00:54.670Z,15.23
2022-11-27T19:03:59.864Z,15.07
2022-11-27T19:07:02.139Z,14.95
2022-11-27T19:10:04.848Z,15.43
2022-11-27T19:13:07.122Z,15.73
2022-11-27T19:16:13.260Z,16.70
2022-11-27T19:22:44.384Z,17.38
2022-11-27T19:25:46.719Z,16.20
2022-11-27T19:28:54.054Z,17.30
2022-11-27T19:31:58.963Z,16.60
2022-11-27T19:35:07.140Z,16.00
2022-11-27T19:38:09.883Z,18.05
2022-11-27T19:41:14.635Z,16.65
2022-11-27T19:44:17.741Z,17.27
2022-11-27T19:47:20.062Z,17.10
2022-11-27T19:50:22.370Z,17.52
2022-11-27T19:53:24.763Z,17.35
2022-11-27T19:56:30.449Z,16.67
2022-11-27T19:59:32.889Z,15.70
2022-11-27T20:02:36.575Z,15.33
2022-11-27T20:05:38.911Z,16.02
2022-11-27T20:08:41.892Z,16.20
2022-11-27T20:11:44.413Z,16.60
2022-11-27T20:14:46.847Z,15.27
2022-11-27T20:17:49.449Z,14.77
2022-11-27T20:20:51.887Z,13.45
2022-11-27T20:23:55.192Z,14.55
2022-11-27T20:26:58.263Z,13.75
2022-11-27T20:30:00.600Z,14.40
2022-11-27T20:33:07.382Z,15.27
2022-11-27T20:36:15.829Z,13.10
2022-11-27T20:39:21.617Z,12.93
2022-11-27T20:42:25.769Z,14.48
2022-11-27T20:45:28.658Z,14.30
2022-11-27T20:48:31.599Z,14.00
2022-11-27T20:51:34.283Z,13.07
2022-11-27T20:54:43.453Z,13.15
2022-11-27T20:57:45.697Z,13.57
2022-11-27T21:00:48.154Z,12.47
2022-11-27T21:03:52.735Z,13.07
2022-11-27T21:06:56.884Z,14.25
2022-11-27T21:09:59.214Z,13.38
2022-11-27T21:13:01.494Z,13.27
2022-11-27T21:16:06.683Z,13.33
2022-11-27T21:19:24.435Z,13.73
2022-11-27T21:22:28.331Z,13.00
2022-11-27T21:25:30.551Z,13.00
2022-11-27T21:28:34.095Z,14.80
2022-11-27T21:31:38.007Z,14.17
2022-11-27T21:34:41.372Z,13.97
2022-11-27T21:37:47.884Z,13.90
2022-11-27T21:40:51.425Z,13.43
2022-11-27T21:43:56.806Z,14.65
2022-11-27T21:47:00.167Z,14.13
2022-11-27T21:50:04.886Z,13.67
2022-11-27T21:53:08.103Z,15.50
2022-11-27T21:56:12.934Z,14.95
2022-11-27T21:59:15.416Z,16.58
2022-11-27T22:02:18.055Z,15.83
2022-11-27T22:05:20.481Z,16.87
2022-11-27T22:08:22.811Z,16.10
2022-11-27T22:11:28.173Z,18.02
2022-11-27T22:14:30.942Z,15.90
2022-11-27T22:17:33.266Z,15.63
2022-11-27T22:20:36.157Z,16.50
2022-11-27T22:23:40.109Z,16.90
2022-11-27T22:26:42.529Z,16.83
2022-11-27T22:29:44.979Z,17.50
2022-11-27T22:32:47.517Z,16.43
2022-11-27T22:35:49.920Z,18.90
2022-11-27T22:38:54.948Z,17.42
2022-11-27T22:41:57.269Z,17.05
2022-11-27T22:44:59.691Z,17.30
2022-11-27T22:48:01.994Z,17.50
2022-11-27T22:51:04.673Z,16.57
2022-11-27T22:54:10.357Z,16.17
2022-11-27T22:57:14.397Z,15.18
2022-11-27T23:00:16.994Z,15.77
2022-11-27T23:03:21.457Z,14.87
2022-11-27T23:06:24.267Z,15.97
2022-11-27T23:09:27.972Z,16.08
2022-11-27T23:12:30.597Z,16.05
2022-11-27T23:15:33.404Z,15.77
2022-11-27T23:18:36.238Z,15.73
2022-11-27T23:21:39.188Z,14.80
2022-11-27T23:24:41.644Z,14.98
2022-11-27T23:27:45.132Z,14.57
2022-11-27T23:30:50.317Z,13.95
2022-11-27T23:34:03.717Z,13.23
2022-11-27T23:37:06.036Z,15.60
2022-11-27T23:40:08.762Z,13.80
2022-11-27T23:43:11.214Z,14.05
2022-11-27T23:46:15.608Z,14.75
2022-11-27T23:49:18.842Z,13.37
2022-11-27T23:52:21.301Z,13.80
2022-11-27T23:55:24.042Z,14.38
2022-11-27T23:58:26.340Z,13.65
